sensor_id;sensor_type;location;lat;lon;timestamp;temperature;humidity
67354;SHT30;54238;52.278;21.056;2023-05-27T00:00:19;12.07;54.83
67354;SHT30;54238;52.278;21.056;2023-05-27T00:05:47;11.99;55.37
67354;SHT30;54238;52.278;21.056;2023-05-27T00:10:54;11.85;55.93
67354;SHT30;54238;52.278;21.056;2023-05-27T00:16:29;11.74;56.39
67354;SHT30;54238;52.278;21.056;2023-05-27T00:19:04;11.69;56.57
67354;SHT30;54238;52.278;21.056;2023-05-27T00:21:31;11.67;56.75
67354;SHT30;54238;52.278;21.056;2023-05-27T00:23:58;11.62;57.20
67354;SHT30;54238;52.278;21.056;2023-05-27T00:26:28;11.58;57.44
67354;SHT30;54238;52.278;21.056;2023-05-27T00:28:58;11.57;57.72
67354;SHT30;54238;52.278;21.056;2023-05-27T00:31:32;11.53;57.77
67354;SHT30;54238;52.278;21.056;2023-05-27T00:34:02;11.51;57.75
67354;SHT30;54238;52.278;21.056;2023-05-27T00:36:34;11.45;58.02
67354;SHT30;54238;52.278;21.056;2023-05-27T00:39:02;11.40;58.11
67354;SHT30;54238;52.278;21.056;2023-05-27T00:41:29;11.35;58.33
67354;SHT30;54238;52.278;21.056;2023-05-27T00:44:01;11.32;58.65
67354;SHT30;54238;52.278;21.056;2023-05-27T00:46:30;11.31;58.85
67354;SHT30;54238;52.278;21.056;2023-05-27T00:48:57;11.28;58.83
67354;SHT30;54238;52.278;21.056;2023-05-27T00:51:24;11.26;59.16
67354;SHT30;54238;52.278;21.056;2023-05-27T00:53:51;11.23;59.19
67354;SHT30;54238;52.278;21.056;2023-05-27T00:56:26;11.18;59.18
67354;SHT30;54238;52.278;21.056;2023-05-27T00:58:56;11.15;59.34
67354;SHT30;54238;52.278;21.056;2023-05-27T01:01:26;11.12;59.45
67354;SHT30;54238;52.278;21.056;2023-05-27T01:03:53;11.11;59.76
67354;SHT30;54238;52.278;21.056;2023-05-27T01:09:39;11.06;60.13
67354;SHT30;54238;52.278;21.056;2023-05-27T01:15:44;11.02;60.57
67354;SHT30;54238;52.278;21.056;2023-05-27T01:18:18;10.99;60.81
67354;SHT30;54238;52.278;21.056;2023-05-27T01:20:50;10.97;60.89
67354;SHT30;54238;52.278;21.056;2023-05-27T01:23:22;10.94;61.01
67354;SHT30;54238;52.278;21.056;2023-05-27T01:25:53;10.92;61.41
67354;SHT30;54238;52.278;21.056;2023-05-27T01:28:21;10.90;61.45
67354;SHT30;54238;52.278;21.056;2023-05-27T01:30:48;10.89;61.55
67354;SHT30;54238;52.278;21.056;2023-05-27T01:33:23;10.87;61.50
67354;SHT30;54238;52.278;21.056;2023-05-27T01:35:55;10.85;61.56
67354;SHT30;54238;52.278;21.056;2023-05-27T01:38:33;10.81;61.73
67354;SHT30;54238;52.278;21.056;2023-05-27T01:41:09;10.77;62.11
67354;SHT30;54238;52.278;21.056;2023-05-27T01:43:39;10.75;62.21
67354;SHT30;54238;52.278;21.056;2023-05-27T01:46:10;10.71;62.42
67354;SHT30;54238;52.278;21.056;2023-05-27T01:48:37;10.67;62.51
67354;SHT30;54238;52.278;21.056;2023-05-27T01:51:07;10.64;62.66
67354;SHT30;54238;52.278;21.056;2023-05-27T01:53:36;10.61;62.85
67354;SHT30;54238;52.278;21.056;2023-05-27T01:56:05;10.60;63.17
67354;SHT30;54238;52.278;21.056;2023-05-27T01:58:34;10.60;63.20
67354;SHT30;54238;52.278;21.056;2023-05-27T02:01:01;10.57;63.23
67354;SHT30;54238;52.278;21.056;2023-05-27T02:03:33;10.55;63.52
67354;SHT30;54238;52.278;21.056;2023-05-27T02:06:05;10.52;63.50
67354;SHT30;54238;52.278;21.056;2023-05-27T02:08:36;10.50;63.69
67354;SHT30;54238;52.278;21.056;2023-05-27T02:11:08;10.53;63.56
67354;SHT30;54238;52.278;21.056;2023-05-27T02:13:37;10.54;63.53
67354;SHT30;54238;52.278;21.056;2023-05-27T02:16:10;10.52;63.87
67354;SHT30;54238;52.278;21.056;2023-05-27T02:18:38;10.51;63.77
67354;SHT30;54238;52.278;21.056;2023-05-27T02:21:08;10.49;63.80
67354;SHT30;54238;52.278;21.056;2023-05-27T02:23:35;10.47;63.82
67354;SHT30;54238;52.278;21.056;2023-05-27T02:26:05;10.46;63.96
67354;SHT30;54238;52.278;21.056;2023-05-27T02:28:32;10.44;64.14
67354;SHT30;54238;52.278;21.056;2023-05-27T02:31:05;10.45;64.24
67354;SHT30;54238;52.278;21.056;2023-05-27T02:33:37;10.47;64.33
67354;SHT30;54238;52.278;21.056;2023-05-27T02:36:07;10.46;64.20
67354;SHT30;54238;52.278;21.056;2023-05-27T02:38:36;10.43;64.21
67354;SHT30;54238;52.278;21.056;2023-05-27T02:41:04;10.42;64.24
67354;SHT30;54238;52.278;21.056;2023-05-27T02:43:34;10.40;64.35
67354;SHT30;54238;52.278;21.056;2023-05-27T02:46:03;10.39;64.50
67354;SHT30;54238;52.278;21.056;2023-05-27T02:48:30;10.37;64.77
67354;SHT30;54238;52.278;21.056;2023-05-27T02:51:02;10.37;64.78
67354;SHT30;54238;52.278;21.056;2023-05-27T02:53:31;10.31;64.91
67354;SHT30;54238;52.278;21.056;2023-05-27T02:55:58;10.26;65.11
67354;SHT30;54238;52.278;21.056;2023-05-27T02:58:25;10.25;65.35
67354;SHT30;54238;52.278;21.056;2023-05-27T03:00:54;10.25;65.54
67354;SHT30;54238;52.278;21.056;2023-05-27T03:03:22;10.25;65.50
67354;SHT30;54238;52.278;21.056;2023-05-27T03:05:50;10.24;65.61
67354;SHT30;54238;52.278;21.056;2023-05-27T03:08:19;10.23;65.77
67354;SHT30;54238;52.278;21.056;2023-05-27T03:10:56;10.23;66.02
67354;SHT30;54238;52.278;21.056;2023-05-27T03:13:23;10.23;66.25
67354;SHT30;54238;52.278;21.056;2023-05-27T03:15:50;10.24;66.20
67354;SHT30;54238;52.278;21.056;2023-05-27T03:18:17;10.25;66.35
67354;SHT30;54238;52.278;21.056;2023-05-27T03:20:44;10.23;66.55
67354;SHT30;54238;52.278;21.056;2023-05-27T03:23:19;10.22;66.63
67354;SHT30;54238;52.278;21.056;2023-05-27T03:25:48;10.24;66.73
67354;SHT30;54238;52.278;21.056;2023-05-27T03:28:17;10.24;66.67
67354;SHT30;54238;52.278;21.056;2023-05-27T03:30:45;10.24;66.83
67354;SHT30;54238;52.278;21.056;2023-05-27T03:33:15;10.24;66.85
67354;SHT30;54238;52.278;21.056;2023-05-27T03:35:42;10.26;67.02
67354;SHT30;54238;52.278;21.056;2023-05-27T03:38:09;10.31;66.93
67354;SHT30;54238;52.278;21.056;2023-05-27T03:40:39;10.35;66.82
67354;SHT30;54238;52.278;21.056;2023-05-27T03:43:12;10.39;66.93
67354;SHT30;54238;52.278;21.056;2023-05-27T03:45:39;10.42;66.85
67354;SHT30;54238;52.278;21.056;2023-05-27T03:48:11;10.44;66.97
67354;SHT30;54238;52.278;21.056;2023-05-27T03:50:41;10.44;67.09
67354;SHT30;54238;52.278;21.056;2023-05-27T03:53:10;10.46;67.07
67354;SHT30;54238;52.278;21.056;2023-05-27T03:55:37;10.49;67.19
67354;SHT30;54238;52.278;21.056;2023-05-27T03:58:04;10.52;67.21
67354;SHT30;54238;52.278;21.056;2023-05-27T04:00:33;10.54;67.09
67354;SHT30;54238;52.278;21.056;2023-05-27T04:03:08;10.55;67.09
67354;SHT30;54238;52.278;21.056;2023-05-27T04:05:41;10.57;67.17
67354;SHT30;54238;52.278;21.056;2023-05-27T04:08:13;10.58;67.04
67354;SHT30;54238;52.278;21.056;2023-05-27T04:10:42;10.61;67.15
67354;SHT30;54238;52.278;21.056;2023-05-27T04:13:15;10.65;67.25
67354;SHT30;54238;52.278;21.056;2023-05-27T04:15:42;10.68;67.02
67354;SHT30;54238;52.278;21.056;2023-05-27T04:18:11;10.69;67.14
67354;SHT30;54238;52.278;21.056;2023-05-27T04:20:44;10.73;67.35
67354;SHT30;54238;52.278;21.056;2023-05-27T04:23:13;10.79;67.12
67354;SHT30;54238;52.278;21.056;2023-05-27T04:25:43;10.82;67.05
67354;SHT30;54238;52.278;21.056;2023-05-27T04:28:15;10.85;67.09
67354;SHT30;54238;52.278;21.056;2023-05-27T04:30:42;10.94;67.12
67354;SHT30;54238;52.278;21.056;2023-05-27T04:33:09;10.97;66.89
67354;SHT30;54238;52.278;21.056;2023-05-27T04:35:42;11.02;66.86
67354;SHT30;54238;52.278;21.056;2023-05-27T04:38:13;11.07;66.86
67354;SHT30;54238;52.278;21.056;2023-05-27T04:40:48;11.13;66.70
67354;SHT30;54238;52.278;21.056;2023-05-27T04:43:21;11.18;66.63
67354;SHT30;54238;52.278;21.056;2023-05-27T04:45:49;11.22;66.48
67354;SHT30;54238;52.278;21.056;2023-05-27T04:48:19;11.29;66.22
67354;SHT30;54238;52.278;21.056;2023-05-27T04:50:53;11.34;66.13
67354;SHT30;54238;52.278;21.056;2023-05-27T04:53:20;11.39;66.09
67354;SHT30;54238;52.278;21.056;2023-05-27T04:55:47;11.45;65.87
67354;SHT30;54238;52.278;21.056;2023-05-27T04:58:14;11.54;65.54
67354;SHT30;54238;52.278;21.056;2023-05-27T05:00:41;11.61;65.46
67354;SHT30;54238;52.278;21.056;2023-05-27T05:03:19;11.65;65.32
67354;SHT30;54238;52.278;21.056;2023-05-27T05:06:03;11.73;65.22
67354;SHT30;54238;52.278;21.056;2023-05-27T05:08:34;11.79;65.12
67354;SHT30;54238;52.278;21.056;2023-05-27T05:11:05;11.85;64.98
67354;SHT30;54238;52.278;21.056;2023-05-27T05:13:35;11.90;64.98
67354;SHT30;54238;52.278;21.056;2023-05-27T05:16:02;11.97;64.77
67354;SHT30;54238;52.278;21.056;2023-05-27T05:18:31;12.05;64.50
67354;SHT30;54238;52.278;21.056;2023-05-27T05:21:01;12.15;64.02
67354;SHT30;54238;52.278;21.056;2023-05-27T05:23:31;12.22;63.66
67354;SHT30;54238;52.278;21.056;2023-05-27T05:26:00;12.31;63.41
67354;SHT30;54238;52.278;21.056;2023-05-27T05:28:37;12.41;62.99
67354;SHT30;54238;52.278;21.056;2023-05-27T05:31:11;12.48;62.73
67354;SHT30;54238;52.278;21.056;2023-05-27T05:33:41;12.54;62.65
67354;SHT30;54238;52.278;21.056;2023-05-27T05:36:10;12.63;62.20
67354;SHT30;54238;52.278;21.056;2023-05-27T05:38:37;12.71;62.11
67354;SHT30;54238;52.278;21.056;2023-05-27T05:41:11;12.79;61.78
67354;SHT30;54238;52.278;21.056;2023-05-27T05:43:47;12.86;61.27
67354;SHT30;54238;52.278;21.056;2023-05-27T05:46:19;12.90;60.87
67354;SHT30;54238;52.278;21.056;2023-05-27T05:48:55;12.95;60.52
67354;SHT30;54238;52.278;21.056;2023-05-27T05:51:24;12.99;60.55
67354;SHT30;54238;52.278;21.056;2023-05-27T05:53:59;13.07;60.40
67354;SHT30;54238;52.278;21.056;2023-05-27T05:56:31;13.18;60.28
67354;SHT30;54238;52.278;21.056;2023-05-27T05:59:01;13.27;59.82
67354;SHT30;54238;52.278;21.056;2023-05-27T06:01:31;13.35;59.39
67354;SHT30;54238;52.278;21.056;2023-05-27T06:04:03;13.41;59.04
67354;SHT30;54238;52.278;21.056;2023-05-27T06:06:33;13.48;58.80
67354;SHT30;54238;52.278;21.056;2023-05-27T06:09:07;13.54;58.48
67354;SHT30;54238;52.278;21.056;2023-05-27T06:11:36;13.61;57.87
67354;SHT30;54238;52.278;21.056;2023-05-27T06:14:05;13.68;57.39
67354;SHT30;54238;52.278;21.056;2023-05-27T06:16:34;13.75;56.94
67354;SHT30;54238;52.278;21.056;2023-05-27T06:19:06;13.85;56.99
67354;SHT30;54238;52.278;21.056;2023-05-27T06:21:38;13.97;57.15
67354;SHT30;54238;52.278;21.056;2023-05-27T06:24:05;14.06;56.34
67354;SHT30;54238;52.278;21.056;2023-05-27T06:26:37;14.15;55.65
67354;SHT30;54238;52.278;21.056;2023-05-27T06:29:09;14.25;55.66
67354;SHT30;54238;52.278;21.056;2023-05-27T06:31:38;14.36;55.06
67354;SHT30;54238;52.278;21.056;2023-05-27T06:34:07;14.46;54.76
67354;SHT30;54238;52.278;21.056;2023-05-27T06:36:34;14.60;54.42
67354;SHT30;54238;52.278;21.056;2023-05-27T06:39:06;14.71;53.96
67354;SHT30;54238;52.278;21.056;2023-05-27T06:41:34;14.80;53.16
67354;SHT30;54238;52.278;21.056;2023-05-27T06:44:03;14.88;52.67
67354;SHT30;54238;52.278;21.056;2023-05-27T06:46:33;14.95;51.89
67354;SHT30;54238;52.278;21.056;2023-05-27T06:49:00;15.06;51.60
67354;SHT30;54238;52.278;21.056;2023-05-27T06:51:32;15.19;51.69
67354;SHT30;54238;52.278;21.056;2023-05-27T06:54:02;15.31;51.27
67354;SHT30;54238;52.278;21.056;2023-05-27T06:56:29;15.41;50.89
67354;SHT30;54238;52.278;21.056;2023-05-27T06:58:58;15.51;50.30
67354;SHT30;54238;52.278;21.056;2023-05-27T07:01:29;15.62;49.98
67354;SHT30;54238;52.278;21.056;2023-05-27T07:04:00;15.73;49.13
67354;SHT30;54238;52.278;21.056;2023-05-27T07:06:28;15.87;48.84
67354;SHT30;54238;52.278;21.056;2023-05-27T07:08:57;15.98;48.48
67354;SHT30;54238;52.278;21.056;2023-05-27T07:11:31;16.08;48.11
67354;SHT30;54238;52.278;21.056;2023-05-27T07:14:01;16.20;47.65
67354;SHT30;54238;52.278;21.056;2023-05-27T07:16:33;16.33;46.90
67354;SHT30;54238;52.278;21.056;2023-05-27T07:19:00;16.48;46.43
67354;SHT30;54238;52.278;21.056;2023-05-27T07:21:30;16.60;46.60
67354;SHT30;54238;52.278;21.056;2023-05-27T07:24:00;16.73;45.62
67354;SHT30;54238;52.278;21.056;2023-05-27T07:26:33;16.83;44.87
67354;SHT30;54238;52.278;21.056;2023-05-27T07:29:03;16.93;44.27
67354;SHT30;54238;52.278;21.056;2023-05-27T07:31:30;17.06;43.48
67354;SHT30;54238;52.278;21.056;2023-05-27T07:33:57;17.16;43.46
67354;SHT30;54238;52.278;21.056;2023-05-27T07:36:29;17.26;43.44
67354;SHT30;54238;52.278;21.056;2023-05-27T07:38:59;17.35;43.36
67354;SHT30;54238;52.278;21.056;2023-05-27T07:41:28;17.47;42.72
67354;SHT30;54238;52.278;21.056;2023-05-27T07:43:56;17.54;41.45
67354;SHT30;54238;52.278;21.056;2023-05-27T07:46:28;17.60;41.27
67354;SHT30;54238;52.278;21.056;2023-05-27T07:48:58;17.71;41.02
67354;SHT30;54238;52.278;21.056;2023-05-27T07:51:26;17.81;40.69
67354;SHT30;54238;52.278;21.056;2023-05-27T07:53:57;17.86;40.37
67354;SHT30;54238;52.278;21.056;2023-05-27T07:56:26;17.92;40.78
67354;SHT30;54238;52.278;21.056;2023-05-27T07:58:53;17.99;40.95
67354;SHT30;54238;52.278;21.056;2023-05-27T08:01:22;18.12;41.71
67354;SHT30;54238;52.278;21.056;2023-05-27T08:03:59;18.31;41.35
67354;SHT30;54238;52.278;21.056;2023-05-27T08:06:28;18.43;40.82
67354;SHT30;54238;52.278;21.056;2023-05-27T08:08:55;18.54;41.06
67354;SHT30;54238;52.278;21.056;2023-05-27T08:11:22;18.67;40.33
67354;SHT30;54238;52.278;21.056;2023-05-27T08:13:52;18.73;39.70
67354;SHT30;54238;52.278;21.056;2023-05-27T08:16:19;18.77;39.55
67354;SHT30;54238;52.278;21.056;2023-05-27T08:18:48;18.91;39.49
67354;SHT30;54238;52.278;21.056;2023-05-27T08:21:16;19.04;38.90
67354;SHT30;54238;52.278;21.056;2023-05-27T08:23:43;19.16;38.53
67354;SHT30;54238;52.278;21.056;2023-05-27T08:26:13;19.26;37.54
67354;SHT30;54238;52.278;21.056;2023-05-27T08:28:42;19.25;37.17
67354;SHT30;54238;52.278;21.056;2023-05-27T08:31:15;19.35;37.34
67354;SHT30;54238;52.278;21.056;2023-05-27T08:33:44;19.39;36.41
67354;SHT30;54238;52.278;21.056;2023-05-27T08:36:14;19.43;35.42
67354;SHT30;54238;52.278;21.056;2023-05-27T08:38:55;19.43;34.60
67354;SHT30;54238;52.278;21.056;2023-05-27T08:41:25;19.46;34.99
67354;SHT30;54238;52.278;21.056;2023-05-27T08:43:58;19.54;35.05
67354;SHT30;54238;52.278;21.056;2023-05-27T08:46:28;19.66;34.93
67354;SHT30;54238;52.278;21.056;2023-05-27T08:49:00;19.72;34.26
67354;SHT30;54238;52.278;21.056;2023-05-27T08:51:36;19.85;34.32
67354;SHT30;54238;52.278;21.056;2023-05-27T08:54:09;20.04;34.17
67354;SHT30;54238;52.278;21.056;2023-05-27T08:56:37;20.15;33.70
67354;SHT30;54238;52.278;21.056;2023-05-27T08:59:06;20.24;33.89
67354;SHT30;54238;52.278;21.056;2023-05-27T09:01:36;20.32;33.12
67354;SHT30;54238;52.278;21.056;2023-05-27T09:04:09;20.45;32.73
67354;SHT30;54238;52.278;21.056;2023-05-27T09:06:41;20.57;32.85
67354;SHT30;54238;52.278;21.056;2023-05-27T09:09:10;20.72;32.49
67354;SHT30;54238;52.278;21.056;2023-05-27T09:11:40;20.87;31.92
67354;SHT30;54238;52.278;21.056;2023-05-27T09:14:25;21.06;31.06
67354;SHT30;54238;52.278;21.056;2023-05-27T09:17:04;21.13;30.79
67354;SHT30;54238;52.278;21.056;2023-05-27T09:19:33;21.30;31.70
67354;SHT30;54238;52.278;21.056;2023-05-27T09:22:06;21.54;31.33
67354;SHT30;54238;52.278;21.056;2023-05-27T09:24:36;21.72;30.93
67354;SHT30;54238;52.278;21.056;2023-05-27T09:27:05;21.90;30.14
67354;SHT30;54238;52.278;21.056;2023-05-27T09:29:32;22.04;30.22
67354;SHT30;54238;52.278;21.056;2023-05-27T09:32:09;22.24;29.42
67354;SHT30;54238;52.278;21.056;2023-05-27T09:34:45;22.35;27.86
67354;SHT30;54238;52.278;21.056;2023-05-27T09:37:13;22.40;26.90
67354;SHT30;54238;52.278;21.056;2023-05-27T09:39:44;22.40;26.74
67354;SHT30;54238;52.278;21.056;2023-05-27T09:42:11;22.49;27.22
67354;SHT30;54238;52.278;21.056;2023-05-27T09:44:39;22.65;26.78
67354;SHT30;54238;52.278;21.056;2023-05-27T09:47:15;22.84;26.53
67354;SHT30;54238;52.278;21.056;2023-05-27T09:49:52;22.98;24.77
67354;SHT30;54238;52.278;21.056;2023-05-27T09:52:23;23.01;25.33
67354;SHT30;54238;52.278;21.056;2023-05-27T09:54:52;23.13;25.26
67354;SHT30;54238;52.278;21.056;2023-05-27T09:57:22;23.23;25.75
67354;SHT30;54238;52.278;21.056;2023-05-27T09:59:54;23.50;26.00
67354;SHT30;54238;52.278;21.056;2023-05-27T10:02:28;23.83;25.20
67354;SHT30;54238;52.278;21.056;2023-05-27T10:05:03;24.02;24.06
67354;SHT30;54238;52.278;21.056;2023-05-27T10:07:38;24.06;24.02
67354;SHT30;54238;52.278;21.056;2023-05-27T10:10:17;24.21;23.71
67354;SHT30;54238;52.278;21.056;2023-05-27T10:12:49;24.35;23.91
67354;SHT30;54238;52.278;21.056;2023-05-27T10:15:26;24.61;24.36
67354;SHT30;54238;52.278;21.056;2023-05-27T10:17:58;24.86;23.40
67354;SHT30;54238;52.278;21.056;2023-05-27T10:20:40;25.07;23.77
67354;SHT30;54238;52.278;21.056;2023-05-27T10:25:50;25.37;22.65
67354;SHT30;54238;52.278;21.056;2023-05-27T10:28:26;25.26;22.75
67354;SHT30;54238;52.278;21.056;2023-05-27T10:31:29;25.34;22.54
67354;SHT30;54238;52.278;21.056;2023-05-27T10:33:58;25.48;22.67
67354;SHT30;54238;52.278;21.056;2023-05-27T10:36:31;25.57;22.26
67354;SHT30;54238;52.278;21.056;2023-05-27T10:39:11;25.74;23.02
67354;SHT30;54238;52.278;21.056;2023-05-27T10:41:52;25.87;22.79
67354;SHT30;54238;52.278;21.056;2023-05-27T10:49:41;26.30;23.24
67354;SHT30;54238;52.278;21.056;2023-05-27T10:52:16;26.35;22.85
67354;SHT30;54238;52.278;21.056;2023-05-27T10:54:49;26.44;22.25
67354;SHT30;54238;52.278;21.056;2023-05-27T10:57:19;26.49;22.02
67354;SHT30;54238;52.278;21.056;2023-05-27T11:02:19;26.89;22.49
67354;SHT30;54238;52.278;21.056;2023-05-27T11:04:49;27.04;22.41
67354;SHT30;54238;52.278;21.056;2023-05-27T11:07:18;27.28;22.65
67354;SHT30;54238;52.278;21.056;2023-05-27T11:09:50;27.38;21.49
67354;SHT30;54238;52.278;21.056;2023-05-27T11:12:22;27.42;21.91
67354;SHT30;54238;52.278;21.056;2023-05-27T11:14:57;27.46;21.20
67354;SHT30;54238;52.278;21.056;2023-05-27T11:17:30;27.45;20.10
67354;SHT30;54238;52.278;21.056;2023-05-27T11:20:00;27.48;20.65
67354;SHT30;54238;52.278;21.056;2023-05-27T11:22:34;27.54;19.63
67354;SHT30;54238;52.278;21.056;2023-05-27T11:25:05;27.58;20.35
67354;SHT30;54238;52.278;21.056;2023-05-27T11:27:40;27.75;20.42
67354;SHT30;54238;52.278;21.056;2023-05-27T11:30:09;27.89;20.40
67354;SHT30;54238;52.278;21.056;2023-05-27T11:32:42;28.06;19.90
67354;SHT30;54238;52.278;21.056;2023-05-27T11:35:12;28.08;18.92
67354;SHT30;54238;52.278;21.056;2023-05-27T11:37:46;27.90;18.30
67354;SHT30;54238;52.278;21.056;2023-05-27T11:40:20;27.88;18.73
67354;SHT30;54238;52.278;21.056;2023-05-27T11:42:49;28.01;18.82
67354;SHT30;54238;52.278;21.056;2023-05-27T11:45:19;28.31;19.09
67354;SHT30;54238;52.278;21.056;2023-05-27T11:47:48;28.58;18.81
67354;SHT30;54238;52.278;21.056;2023-05-27T11:50:21;28.82;18.41
67354;SHT30;54238;52.278;21.056;2023-05-27T11:52:52;28.85;17.00
67354;SHT30;54238;52.278;21.056;2023-05-27T11:55:22;28.85;17.63
67354;SHT30;54238;52.278;21.056;2023-05-27T11:57:52;28.99;17.66
67354;SHT30;54238;52.278;21.056;2023-05-27T12:00:24;29.05;17.17
67354;SHT30;54238;52.278;21.056;2023-05-27T12:02:52;29.15;17.50
67354;SHT30;54238;52.278;21.056;2023-05-27T12:05:19;29.25;17.28
67354;SHT30;54238;52.278;21.056;2023-05-27T12:07:46;29.37;17.52
67354;SHT30;54238;52.278;21.056;2023-05-27T12:10:16;29.55;16.88
67354;SHT30;54238;52.278;21.056;2023-05-27T12:12:46;29.55;16.82
67354;SHT30;54238;52.278;21.056;2023-05-27T12:15:15;29.65;16.89
67354;SHT30;54238;52.278;21.056;2023-05-27T12:17:45;29.53;16.44
67354;SHT30;54238;52.278;21.056;2023-05-27T12:20:12;29.49;17.06
67354;SHT30;54238;52.278;21.056;2023-05-27T12:22:39;29.57;17.30
67354;SHT30;54238;52.278;21.056;2023-05-27T12:25:08;29.70;16.94
67354;SHT30;54238;52.278;21.056;2023-05-27T12:27:38;29.78;17.15
67354;SHT30;54238;52.278;21.056;2023-05-27T12:30:22;29.94;16.87
67354;SHT30;54238;52.278;21.056;2023-05-27T12:32:49;30.12;17.03
67354;SHT30;54238;52.278;21.056;2023-05-27T12:35:32;30.34;17.15
67354;SHT30;54238;52.278;21.056;2023-05-27T12:38:01;30.45;17.02
67354;SHT30;54238;52.278;21.056;2023-05-27T12:40:32;30.71;17.24
67354;SHT30;54238;52.278;21.056;2023-05-27T12:43:00;30.94;17.07
67354;SHT30;54238;52.278;21.056;2023-05-27T12:45:30;30.92;17.11
67354;SHT30;54238;52.278;21.056;2023-05-27T12:48:00;31.10;16.72
67354;SHT30;54238;52.278;21.056;2023-05-27T12:50:28;31.11;17.04
67354;SHT30;54238;52.278;21.056;2023-05-27T12:53:02;31.28;16.80
67354;SHT30;54238;52.278;21.056;2023-05-27T12:55:29;31.29;16.67
67354;SHT30;54238;52.278;21.056;2023-05-27T12:57:57;31.45;16.92
67354;SHT30;54238;52.278;21.056;2023-05-27T13:00:29;31.63;17.00
67354;SHT30;54238;52.278;21.056;2023-05-27T13:03:03;31.76;16.71
67354;SHT30;54238;52.278;21.056;2023-05-27T13:05:37;31.79;16.96
67354;SHT30;54238;52.278;21.056;2023-05-27T13:08:04;31.87;16.55
67354;SHT30;54238;52.278;21.056;2023-05-27T13:10:34;31.82;16.54
67354;SHT30;54238;52.278;21.056;2023-05-27T13:13:07;31.82;16.51
67354;SHT30;54238;52.278;21.056;2023-05-27T13:15:34;31.73;16.15
67354;SHT30;54238;52.278;21.056;2023-05-27T13:18:04;31.61;15.89
67354;SHT30;54238;52.278;21.056;2023-05-27T13:20:33;31.57;15.66
67354;SHT30;54238;52.278;21.056;2023-05-27T13:23:03;31.59;15.49
67354;SHT30;54238;52.278;21.056;2023-05-27T13:25:35;31.51;16.08
67354;SHT30;54238;52.278;21.056;2023-05-27T13:28:04;31.60;16.20
67354;SHT30;54238;52.278;21.056;2023-05-27T13:30:33;31.60;15.82
67354;SHT30;54238;52.278;21.056;2023-05-27T13:33:03;31.39;16.24
67354;SHT30;54238;52.278;21.056;2023-05-27T13:35:32;31.42;16.89
67354;SHT30;54238;52.278;21.056;2023-05-27T13:37:59;31.64;17.13
67354;SHT30;54238;52.278;21.056;2023-05-27T13:40:27;31.87;16.80
67354;SHT30;54238;52.278;21.056;2023-05-27T13:43:00;31.90;16.57
67354;SHT30;54238;52.278;21.056;2023-05-27T13:45:29;31.83;16.51
67354;SHT30;54238;52.278;21.056;2023-05-27T13:48:01;31.73;16.27
67354;SHT30;54238;52.278;21.056;2023-05-27T13:50:28;31.69;16.55
67354;SHT30;54238;52.278;21.056;2023-05-27T13:53:00;31.70;15.69
67354;SHT30;54238;52.278;21.056;2023-05-27T13:55:32;31.39;15.93
67354;SHT30;54238;52.278;21.056;2023-05-27T13:58:03;31.32;16.32
67354;SHT30;54238;52.278;21.056;2023-05-27T14:00:35;31.41;16.89
67354;SHT30;54238;52.278;21.056;2023-05-27T14:03:04;31.46;16.48
67354;SHT30;54238;52.278;21.056;2023-05-27T14:05:33;31.40;16.19
67354;SHT30;54238;52.278;21.056;2023-05-27T14:08:02;31.42;16.25
67354;SHT30;54238;52.278;21.056;2023-05-27T14:10:33;31.42;16.46
67354;SHT30;54238;52.278;21.056;2023-05-27T14:13:04;31.46;16.29
67354;SHT30;54238;52.278;21.056;2023-05-27T14:15:35;31.46;16.55
67354;SHT30;54238;52.278;21.056;2023-05-27T14:18:05;31.47;16.70
67354;SHT30;54238;52.278;21.056;2023-05-27T14:20:34;31.55;17.00
67354;SHT30;54238;52.278;21.056;2023-05-27T14:23:03;31.49;16.33
67354;SHT30;54238;52.278;21.056;2023-05-27T14:25:31;31.44;16.79
67354;SHT30;54238;52.278;21.056;2023-05-27T14:28:01;31.52;17.03
67354;SHT30;54238;52.278;21.056;2023-05-27T14:30:30;31.33;16.54
67354;SHT30;54238;52.278;21.056;2023-05-27T14:33:01;31.05;17.24
67354;SHT30;54238;52.278;21.056;2023-05-27T14:35:39;31.20;17.69
67354;SHT30;54238;52.278;21.056;2023-05-27T14:38:16;31.14;17.20
67354;SHT30;54238;52.278;21.056;2023-05-27T14:40:43;30.99;17.05
67354;SHT30;54238;52.278;21.056;2023-05-27T14:43:11;30.78;17.11
67354;SHT30;54238;52.278;21.056;2023-05-27T14:45:42;30.50;17.63
67354;SHT30;54238;52.278;21.056;2023-05-27T14:48:11;30.30;17.68
67354;SHT30;54238;52.278;21.056;2023-05-27T14:50:38;30.07;17.47
67354;SHT30;54238;52.278;21.056;2023-05-27T14:53:08;30.08;18.31
67354;SHT30;54238;52.278;21.056;2023-05-27T14:55:35;30.18;18.34
67354;SHT30;54238;52.278;21.056;2023-05-27T14:58:06;30.18;17.90
67354;SHT30;54238;52.278;21.056;2023-05-27T15:00:34;30.04;17.66
67354;SHT30;54238;52.278;21.056;2023-05-27T15:03:03;29.84;18.07
67354;SHT30;54238;52.278;21.056;2023-05-27T15:05:33;29.85;17.96
67354;SHT30;54238;52.278;21.056;2023-05-27T15:08:05;29.71;18.06
67354;SHT30;54238;52.278;21.056;2023-05-27T15:10:38;29.70;18.11
67354;SHT30;54238;52.278;21.056;2023-05-27T15:13:09;29.75;17.91
67354;SHT30;54238;52.278;21.056;2023-05-27T15:15:39;29.48;17.85
67354;SHT30;54238;52.278;21.056;2023-05-27T15:18:08;29.23;17.93
67354;SHT30;54238;52.278;21.056;2023-05-27T15:20:38;29.02;17.96
67354;SHT30;54238;52.278;21.056;2023-05-27T15:23:08;28.84;17.86
67354;SHT30;54238;52.278;21.056;2023-05-27T15:25:40;28.60;17.93
67354;SHT30;54238;52.278;21.056;2023-05-27T15:28:12;28.33;18.01
67354;SHT30;54238;52.278;21.056;2023-05-27T15:30:44;28.15;18.28
67354;SHT30;54238;52.278;21.056;2023-05-27T15:33:12;28.00;18.85
67354;SHT30;54238;52.278;21.056;2023-05-27T15:35:44;28.02;19.21
67354;SHT30;54238;52.278;21.056;2023-05-27T15:38:16;27.85;18.61
67354;SHT30;54238;52.278;21.056;2023-05-27T15:40:45;27.64;18.46
67354;SHT30;54238;52.278;21.056;2023-05-27T15:43:13;27.44;18.61
67354;SHT30;54238;52.278;21.056;2023-05-27T15:45:42;27.26;18.79
67354;SHT30;54238;52.278;21.056;2023-05-27T15:48:14;27.06;19.17
67354;SHT30;54238;52.278;21.056;2023-05-27T15:50:43;26.79;19.35
67354;SHT30;54238;52.278;21.056;2023-05-27T15:53:15;26.64;19.52
67354;SHT30;54238;52.278;21.056;2023-05-27T15:55:47;26.64;19.82
67354;SHT30;54238;52.278;21.056;2023-05-27T15:58:14;26.64;19.64
67354;SHT30;54238;52.278;21.056;2023-05-27T16:00:44;26.63;19.88